createdAt,value
2022-11-19T00:00:41.047Z,1.80
2022-11-19T00:03:10.810Z,1.79
2022-11-19T00:05:42.345Z,1.78
2022-11-19T00:08:19.547Z,1.76
2022-11-19T00:10:49.980Z,1.70
2022-11-19T00:13:17.275Z,1.67
2022-11-19T00:15:47.084Z,1.67
2022-11-19T00:18:16.835Z,1.62
2022-11-19T00:20:46.536Z,1.61
2022-11-19T00:23:18.907Z,1.58
2022-11-19T00:25:48.595Z,1.56
2022-11-19T00:28:18.307Z,1.56
2022-11-19T00:30:48.806Z,1.53
2022-11-19T00:33:18.664Z,1.52
2022-11-19T00:35:48.376Z,1.50
2022-11-19T00:38:20.736Z,1.48
2022-11-19T00:40:50.443Z,1.48
2022-11-19T00:43:32.604Z,1.46
2022-11-19T00:46:02.368Z,1.43
2022-11-19T00:48:32.057Z,1.40
2022-11-19T00:51:02.197Z,1.35
2022-11-19T00:53:34.464Z,1.31
2022-11-19T00:56:05.103Z,1.26
2022-11-19T00:58:34.798Z,1.22
2022-11-19T01:01:04.525Z,1.20
2022-11-19T01:03:34.967Z,1.18
2022-11-19T01:06:04.684Z,1.16
2022-11-19T01:08:37.275Z,1.13
2022-11-19T01:11:08.652Z,1.10
2022-11-19T01:13:39.078Z,1.09
2022-11-19T01:16:11.676Z,1.07
2022-11-19T01:18:42.455Z,1.07
2022-11-19T01:21:14.224Z,1.07
2022-11-19T01:23:47.545Z,1.09
2022-11-19T01:26:18.342Z,1.10
2022-11-19T01:28:48.694Z,1.11
2022-11-19T01:31:20.816Z,1.08
2022-11-19T01:33:51.311Z,1.06
2022-11-19T01:36:23.076Z,1.07
2022-11-19T01:38:56.286Z,1.04
2022-11-19T01:41:28.280Z,1.04
2022-11-19T01:44:00.865Z,1.02
2022-11-19T01:46:33.484Z,1.01
2022-11-19T01:49:08.304Z,1.02
2022-11-19T01:51:40.919Z,1.01
2022-11-19T01:54:18.748Z,1.02
2022-11-19T01:56:48.497Z,1.00
2022-11-19T01:59:21.539Z,0.96
2022-11-19T02:01:51.557Z,0.93
2022-11-19T02:04:22.124Z,0.91
2022-11-19T02:06:52.140Z,0.88
2022-11-19T02:09:25.060Z,0.85
2022-11-19T02:12:09.662Z,0.84
2022-11-19T02:15:07.486Z,0.82
2022-11-19T02:17:53.982Z,0.76
2022-11-19T02:20:44.332Z,0.72
2022-11-19T02:23:56.140Z,0.70
2022-11-19T02:26:58.288Z,0.65
2022-11-19T02:29:53.199Z,0.65
2022-11-19T02:32:30.968Z,0.62
2022-11-19T02:35:06.794Z,0.63
2022-11-19T02:37:44.844Z,0.63
2022-11-19T02:40:22.938Z,0.61
2022-11-19T02:42:59.762Z,0.56
2022-11-19T02:45:38.101Z,0.52
2022-11-19T02:48:13.183Z,0.51
2022-11-19T02:50:48.043Z,0.48
2022-11-19T02:53:17.770Z,0.48
2022-11-19T02:56:10.539Z,0.45
2022-11-19T02:58:56.317Z,0.41
2022-11-19T03:01:47.810Z,0.40
2022-11-19T03:04:34.416Z,0.36
2022-11-19T03:07:07.933Z,0.36
2022-11-19T03:09:44.232Z,0.34
2022-11-19T03:12:21.881Z,0.32
2022-11-19T03:15:10.513Z,0.28
2022-11-19T03:17:56.757Z,0.25
2022-11-19T03:20:33.037Z,0.24
2022-11-19T03:23:07.941Z,0.21
2022-11-19T03:25:42.520Z,0.20
2022-11-19T03:28:16.599Z,0.20
2022-11-19T03:30:49.193Z,0.20
2022-11-19T03:33:25.779Z,0.19
2022-11-19T03:35:58.862Z,0.19
2022-11-19T03:38:32.468Z,0.20
2022-11-19T03:41:04.288Z,0.21
2022-11-19T03:43:40.756Z,0.24
2022-11-19T03:46:17.182Z,0.21
2022-11-19T03:48:52.927Z,0.22
2022-11-19T03:51:25.187Z,0.20
2022-11-19T03:53:55.806Z,0.18
2022-11-19T03:56:29.552Z,0.17
2022-11-19T03:59:02.002Z,0.16
2022-11-19T04:01:33.691Z,0.15
2022-11-19T04:04:18.873Z,0.12
2022-11-19T04:06:48.607Z,0.09
2022-11-19T04:09:19.083Z,0.07
2022-11-19T04:14:17.498Z,0.04
2022-11-19T04:16:47.413Z,0.02
2022-11-19T04:19:20.724Z,-0.01
2022-11-19T04:21:50.879Z,-0.05
2022-11-19T04:24:20.741Z,-0.06
2022-11-19T04:26:50.444Z,-0.05
2022-11-19T04:29:20.473Z,-0.07
2022-11-19T04:31:50.456Z,-0.07
2022-11-19T04:34:22.907Z,-0.08
2022-11-19T04:36:52.621Z,-0.11
2022-11-19T04:39:22.618Z,-0.13
2022-11-19T04:41:52.501Z,-0.14
2022-11-19T04:44:22.257Z,-0.17
2022-11-19T04:46:51.993Z,-0.19
2022-11-19T04:49:24.421Z,-0.20
2022-11-19T04:51:54.205Z,-0.21
2022-11-19T04:54:23.952Z,-0.21
2022-11-19T04:56:53.691Z,-0.23
2022-11-19T04:59:23.394Z,-0.24
2022-11-19T05:01:53.144Z,-0.23
2022-11-19T05:04:25.673Z,-0.25
2022-11-19T05:06:55.453Z,-0.26
2022-11-19T05:09:25.199Z,-0.26
2022-11-19T05:11:54.936Z,-0.25
2022-11-19T05:14:28.911Z,-0.27
2022-11-19T05:17:00.167Z,-0.29
2022-11-19T05:19:32.566Z,-0.31
2022-11-19T05:22:02.271Z,-0.33
2022-11-19T05:24:31.985Z,-0.35
2022-11-19T05:27:01.697Z,-0.37
2022-11-19T05:29:31.405Z,-0.36
2022-11-19T05:32:01.220Z,-0.33
2022-11-19T05:34:33.647Z,-0.34
2022-11-19T05:37:03.381Z,-0.38
2022-11-19T05:39:33.070Z,-0.40
2022-11-19T05:42:02.780Z,-0.40
2022-11-19T05:44:32.515Z,-0.44
2022-11-19T05:47:02.203Z,-0.45
2022-11-19T05:49:34.561Z,-0.46
2022-11-19T05:52:04.308Z,-0.46
2022-11-19T05:54:34.092Z,-0.46
2022-11-19T05:57:03.956Z,-0.45
2022-11-19T05:59:33.668Z,-0.45
2022-11-19T06:02:03.400Z,-0.46
2022-11-19T06:04:35.796Z,-0.46
2022-11-19T06:07:05.550Z,-0.48
2022-11-19T06:09:35.475Z,-0.47
2022-11-19T06:12:05.243Z,-0.47
2022-11-19T06:14:34.966Z,-0.49
2022-11-19T06:17:04.711Z,-0.51
2022-11-19T06:19:37.205Z,-0.51
2022-11-19T06:22:06.944Z,-0.52
2022-11-19T06:24:36.654Z,-0.51
2022-11-19T06:27:06.763Z,-0.52
2022-11-19T06:29:36.517Z,-0.51
2022-11-19T06:32:06.546Z,-0.53
2022-11-19T06:34:38.933Z,-0.52
2022-11-19T06:37:08.680Z,-0.49
2022-11-19T06:39:38.365Z,-0.52
2022-11-19T06:42:20.604Z,-0.52
2022-11-19T06:44:50.300Z,-0.52
2022-11-19T06:47:20.082Z,-0.54
2022-11-19T06:49:52.448Z,-0.51
2022-11-19T06:52:22.158Z,-0.53
2022-11-19T06:54:51.876Z,-0.53
2022-11-19T06:57:21.623Z,-0.53
2022-11-19T06:59:51.324Z,-0.54
2022-11-19T07:02:21.678Z,-0.54
2022-11-19T07:04:54.176Z,-0.54
2022-11-19T07:07:24.083Z,-0.55
2022-11-19T07:09:53.899Z,-0.53
2022-11-19T07:12:23.631Z,-0.52
2022-11-19T07:14:53.379Z,-0.51
2022-11-19T07:17:23.116Z,-0.49
2022-11-19T07:19:55.420Z,-0.47
2022-11-19T07:22:25.325Z,-0.49
2022-11-19T07:24:55.037Z,-0.51
2022-11-19T07:27:24.758Z,-0.51
2022-11-19T07:29:54.545Z,-0.51
2022-11-19T07:32:24.435Z,-0.50
2022-11-19T07:34:56.781Z,-0.49
2022-11-19T07:37:26.790Z,-0.51
2022-11-19T07:39:56.533Z,-0.51
2022-11-19T07:42:38.674Z,-0.48
2022-11-19T07:45:09.823Z,-0.48
2022-11-19T07:47:39.567Z,-0.46
2022-11-19T07:50:12.666Z,-0.47
2022-11-19T07:52:42.451Z,-0.46
2022-11-19T07:55:12.813Z,-0.45
2022-11-19T07:57:42.592Z,-0.41
2022-11-19T08:00:13.660Z,-0.37
2022-11-19T08:02:43.376Z,-0.35
2022-11-19T08:05:15.703Z,-0.31
2022-11-19T08:07:45.451Z,-0.30
2022-11-19T08:10:15.179Z,-0.29
2022-11-19T08:13:03.251Z,-0.30
2022-11-19T08:15:33.416Z,-0.27
2022-11-19T08:18:12.685Z,-0.18
2022-11-19T08:20:48.422Z,-0.07
2022-11-19T08:23:18.427Z,0.06
2022-11-19T08:25:48.342Z,0.20
2022-11-19T08:28:18.068Z,0.34
2022-11-19T08:30:47.784Z,0.46
2022-11-19T08:33:17.488Z,0.59
2022-11-19T08:35:50.406Z,0.72
2022-11-19T08:38:20.129Z,0.82
2022-11-19T08:41:14.404Z,0.93
2022-11-19T08:43:41.737Z,1.00
2022-11-19T08:46:11.949Z,1.02
2022-11-19T08:48:41.634Z,1.03
2022-11-19T08:51:14.961Z,1.04
2022-11-19T08:53:44.912Z,1.05
2022-11-19T08:56:17.997Z,1.06
2022-11-19T08:58:48.321Z,1.08
2022-11-19T09:01:19.859Z,1.05
2022-11-19T09:03:50.009Z,1.05
2022-11-19T09:06:22.300Z,1.05
2022-11-19T09:08:52.032Z,1.04
2022-11-19T09:11:23.434Z,1.04
2022-11-19T09:13:53.108Z,1.02
2022-11-19T09:16:22.836Z,1.00
2022-11-19T09:18:52.707Z,1.00
2022-11-19T09:21:25.042Z,0.99
2022-11-19T09:23:54.742Z,1.01
2022-11-19T09:26:24.455Z,0.98
2022-11-19T09:28:55.363Z,0.99
2022-11-19T09:31:25.104Z,0.99
2022-11-19T09:33:55.660Z,1.00
2022-11-19T09:36:28.585Z,1.02
2022-11-19T09:39:02.308Z,1.02
2022-11-19T09:41:48.783Z,1.05
2022-11-19T09:44:31.995Z,1.08
2022-11-19T09:47:09.792Z,1.10
2022-11-19T09:49:45.341Z,1.12
2022-11-19T09:52:22.048Z,1.17
2022-11-19T09:54:55.158Z,1.23
2022-11-19T09:57:31.032Z,1.25
2022-11-19T10:00:04.517Z,1.28
2022-11-19T10:02:34.337Z,1.32
2022-11-19T10:05:04.268Z,1.35
2022-11-19T10:07:47.553Z,1.37
2022-11-19T10:10:34.124Z,1.41
2022-11-19T10:13:17.169Z,1.44
2022-11-19T10:15:59.640Z,1.46
2022-11-19T10:18:40.194Z,1.49
2022-11-19T10:21:17.326Z,1.55
2022-11-19T10:23:56.191Z,1.59
2022-11-19T10:26:34.975Z,1.63
2022-11-19T10:29:06.548Z,1.65
2022-11-19T10:31:39.879Z,1.69
2022-11-19T10:34:17.308Z,1.73
2022-11-19T10:36:50.942Z,1.80
2022-11-19T10:39:27.980Z,1.84
2022-11-19T10:42:04.306Z,1.87
2022-11-19T10:44:43.295Z,1.90
2022-11-19T10:47:19.584Z,1.94
2022-11-19T10:49:56.115Z,1.99
2022-11-19T10:52:30.104Z,2.06
2022-11-19T10:55:07.771Z,2.12
2022-11-19T10:57:37.778Z,2.16
2022-11-19T11:00:08.471Z,2.21
2022-11-19T11:02:47.608Z,2.24
2022-11-19T11:05:19.280Z,2.27
2022-11-19T11:07:52.661Z,2.31
2022-11-19T11:10:38.483Z,2.31
2022-11-19T11:13:23.984Z,2.34
2022-11-19T11:15:56.764Z,2.36
2022-11-19T11:18:28.889Z,2.36
2022-11-19T11:20:59.546Z,2.38
2022-11-19T11:23:31.110Z,2.38
2022-11-19T11:26:09.875Z,2.39
2022-11-19T11:28:39.964Z,2.41
2022-11-19T11:31:13.672Z,2.44
2022-11-19T11:33:45.212Z,2.47
2022-11-19T11:36:18.433Z,2.49
2022-11-19T11:38:50.426Z,2.49
2022-11-19T11:44:21.820Z,2.59
2022-11-19T11:46:53.528Z,2.66
2022-11-19T11:49:30.383Z,2.72
2022-11-19T11:52:19.475Z,2.77
2022-11-19T11:55:00.824Z,2.79
2022-11-19T11:57:35.932Z,2.85
2022-11-19T12:00:28.005Z,2.88
2022-11-19T12:03:03.014Z,2.93
2022-11-19T12:05:40.497Z,2.96
2022-11-19T12:08:16.594Z,2.99
2022-11-19T12:10:54.819Z,3.07
2022-11-19T12:13:54.919Z,3.15
2022-11-19T12:16:45.672Z,3.20
2022-11-19T12:19:35.932Z,3.24
2022-11-19T12:22:15.632Z,3.27
2022-11-19T12:25:04.763Z,3.30
2022-11-19T12:27:40.842Z,3.34
2022-11-19T12:30:18.533Z,3.37
2022-11-19T12:33:15.275Z,3.38
2022-11-19T12:35:57.056Z,3.43
2022-11-19T12:38:37.107Z,3.47
2022-11-19T12:41:20.608Z,3.53
2022-11-19T12:43:56.523Z,3.54
2022-11-19T12:46:43.326Z,3.57
2022-11-19T12:49:41.896Z,3.59
2022-11-19T12:52:32.481Z,3.60
2022-11-19T12:55:12.767Z,3.62
2022-11-19T12:57:50.787Z,3.63
2022-11-19T13:00:22.799Z,3.63
2022-11-19T13:03:07.407Z,3.65
2022-11-19T13:05:45.515Z,3.65
2022-11-19T13:08:21.290Z,3.63
2022-11-19T13:10:53.844Z,3.62
2022-11-19T13:13:29.125Z,3.58
2022-11-19T13:16:03.256Z,3.57
2022-11-19T13:18:39.054Z,3.58
2022-11-19T13:21:11.416Z,3.56
2022-11-19T13:23:45.325Z,3.56
2022-11-19T13:26:19.356Z,3.55
2022-11-19T13:28:53.446Z,3.56
2022-11-19T13:31:33.818Z,3.58
2022-11-19T13:34:18.535Z,3.58
2022-11-19T13:36:57.880Z,3.59
2022-11-19T13:39:34.388Z,3.60
2022-11-19T13:42:18.792Z,3.62
2022-11-19T13:44:48.953Z,3.63
2022-11-19T13:47:25.286Z,3.64
2022-11-19T13:50:02.628Z,3.65
2022-11-19T13:52:35.863Z,3.65
2022-11-19T13:55:07.305Z,3.63
2022-11-19T13:57:43.492Z,3.62
2022-11-19T14:00:26.348Z,3.63
2022-11-19T14:03:20.246Z,3.61
2022-11-19T14:06:22.774Z,3.61
2022-11-19T14:09:04.519Z,3.64
2022-11-19T14:11:53.522Z,3.64
2022-11-19T14:14:49.484Z,3.64
2022-11-19T14:17:41.004Z,3.62
2022-11-19T14:20:51.288Z,3.65
2022-11-19T14:24:01.159Z,3.63
2022-11-19T14:27:00.968Z,3.63
2022-11-19T14:29:56.842Z,3.61
2022-11-19T14:32:46.361Z,3.61
2022-11-19T14:35:34.819Z,3.58
2022-11-19T14:38:17.336Z,3.57
2022-11-19T14:40:50.248Z,3.55
2022-11-19T14:43:39.644Z,3.55
2022-11-19T14:46:27.303Z,3.54
2022-11-19T14:49:04.485Z,3.52
2022-11-19T14:51:40.369Z,3.52
2022-11-19T14:54:31.338Z,3.52
2022-11-19T14:57:11.937Z,3.53
2022-11-19T14:59:42.588Z,3.51
2022-11-19T15:02:25.947Z,3.50
2022-11-19T15:05:00.980Z,3.47
2022-11-19T15:08:14.848Z,3.45
2022-11-19T15:11:06.644Z,3.43
2022-11-19T15:13:40.731Z,3.44
2022-11-19T15:16:14.445Z,3.45
2022-11-19T15:19:10.992Z,3.47
2022-11-19T15:22:10.859Z,3.50
2022-11-19T15:24:56.996Z,3.53
2022-11-19T15:27:41.958Z,3.55
2022-11-19T15:30:20.844Z,3.57
2022-11-19T15:33:07.813Z,3.58
2022-11-19T15:36:06.186Z,3.59
2022-11-19T15:38:39.976Z,3.56
2022-11-19T15:41:10.494Z,3.57
2022-11-19T15:43:46.358Z,3.57
2022-11-19T15:46:29.917Z,3.54
2022-11-19T15:49:05.063Z,3.51
2022-11-19T15:51:41.874Z,3.49
2022-11-19T15:54:14.862Z,3.46
2022-11-19T15:56:50.918Z,3.44
2022-11-19T15:59:23.037Z,3.41
2022-11-19T16:02:03.911Z,3.38
2022-11-19T16:04:37.725Z,3.34
2022-11-19T16:07:10.120Z,3.31
2022-11-19T16:09:40.888Z,3.29
2022-11-19T16:12:35.375Z,3.27
2022-11-19T16:15:17.511Z,3.26
2022-11-19T16:17:50.546Z,3.24
2022-11-19T16:20:23.458Z,3.22
2022-11-19T16:22:59.954Z,3.20
2022-11-19T16:25:35.905Z,3.16
2022-11-19T16:28:09.348Z,3.13
2022-11-19T16:30:47.191Z,3.12
2022-11-19T16:33:23.224Z,3.08
2022-11-19T16:35:54.167Z,3.06
2022-11-19T16:38:30.339Z,3.03
2022-11-19T16:41:12.867Z,2.99
2022-11-19T16:43:48.684Z,2.96
2022-11-19T16:46:21.381Z,2.94
2022-11-19T16:49:02.662Z,2.93
2022-11-19T16:51:38.886Z,2.89
2022-11-19T16:54:11.023Z,2.88
2022-11-19T16:56:48.229Z,2.86
2022-11-19T16:59:23.997Z,2.84
2022-11-19T17:02:00.244Z,2.83
2022-11-19T17:04:34.519Z,2.78
2022-11-19T17:07:04.534Z,2.78
2022-11-19T17:09:41.873Z,2.76
2022-11-19T17:12:27.585Z,2.74
2022-11-19T17:15:00.150Z,2.72
2022-11-19T17:17:42.779Z,2.70
2022-11-19T17:20:42.457Z,2.69
2022-11-19T17:23:19.991Z,2.65
2022-11-19T17:25:51.396Z,2.64
2022-11-19T17:28:28.410Z,2.64
2022-11-19T17:30:58.859Z,2.63
2022-11-19T17:33:32.685Z,2.63
2022-11-19T17:36:05.168Z,2.60
2022-11-19T17:38:37.975Z,2.59
2022-11-19T17:41:08.237Z,2.78
2022-11-19T17:43:52.403Z,3.10
2022-11-19T17:46:22.960Z,3.45
2022-11-19T17:48:53.875Z,3.60
2022-11-19T17:51:25.060Z,3.62
2022-11-19T17:53:58.035Z,3.57
2022-11-19T17:56:30.628Z,3.49
2022-11-19T17:59:01.208Z,3.40
2022-11-19T18:01:31.129Z,3.30
2022-11-19T18:04:00.944Z,3.22
2022-11-19T18:06:30.728Z,3.16
2022-11-19T18:09:03.094Z,3.09
2022-11-19T18:11:33.708Z,3.02
2022-11-19T18:14:09.938Z,2.94
2022-11-19T18:16:42.788Z,2.87
2022-11-19T18:19:16.832Z,2.77
2022-11-19T18:21:48.566Z,2.70
2022-11-19T18:24:21.285Z,2.66
2022-11-19T18:26:51.016Z,2.63
2022-11-19T18:29:21.044Z,2.58
2022-11-19T18:31:53.506Z,2.55
2022-11-19T18:34:25.528Z,2.53
2022-11-19T18:36:55.256Z,2.53
2022-11-19T18:39:28.055Z,2.50
2022-11-19T18:41:58.532Z,2.48
2022-11-19T18:44:35.088Z,2.46
2022-11-19T18:47:06.778Z,2.43
2022-11-19T18:49:36.559Z,2.42
2022-11-19T18:52:08.938Z,2.38
2022-11-19T18:54:41.276Z,2.36
2022-11-19T18:57:12.101Z,2.32
2022-11-19T18:59:41.975Z,2.30
2022-11-19T19:02:12.916Z,2.29
2022-11-19T19:04:42.974Z,2.27
2022-11-19T19:07:13.357Z,2.25
2022-11-19T19:09:46.047Z,2.24
2022-11-19T19:12:22.382Z,2.23
2022-11-19T19:14:54.752Z,2.20
2022-11-19T19:17:24.608Z,2.21
2022-11-19T19:19:54.319Z,2.17
2022-11-19T19:22:24.249Z,2.18
2022-11-19T19:24:58.299Z,2.17
2022-11-19T19:27:28.506Z,2.16
2022-11-19T19:29:58.416Z,2.15
2022-11-19T19:32:28.135Z,2.14
2022-11-19T19:34:58.058Z,2.14
2022-11-19T19:37:27.811Z,2.14
2022-11-19T19:40:00.300Z,2.14
2022-11-19T19:42:31.695Z,2.12
2022-11-19T19:45:01.465Z,2.12
2022-11-19T19:47:31.145Z,2.11
2022-11-19T19:50:00.890Z,2.11
2022-11-19T19:52:30.575Z,2.10
2022-11-19T19:55:04.201Z,2.10
2022-11-19T19:57:33.959Z,2.09
2022-11-19T20:00:03.701Z,2.10
2022-11-19T20:02:33.533Z,2.11
2022-11-19T20:05:03.267Z,2.09
2022-11-19T20:07:33.255Z,2.08
2022-11-19T20:10:05.641Z,2.08
2022-11-19T20:12:47.579Z,2.07
2022-11-19T20:15:17.420Z,2.06
2022-11-19T20:17:47.209Z,2.05
2022-11-19T20:20:17.432Z,2.03
2022-11-19T20:22:47.671Z,2.03
2022-11-19T20:25:21.186Z,2.05
2022-11-19T20:27:50.980Z,2.07
2022-11-19T20:30:20.936Z,2.09
2022-11-19T20:32:50.691Z,2.12
2022-11-19T20:35:20.426Z,2.15
2022-11-19T20:37:50.148Z,2.16
2022-11-19T20:40:22.660Z,2.21
2022-11-19T20:43:04.907Z,2.23
2022-11-19T20:45:34.682Z,2.26
2022-11-19T20:48:04.844Z,2.26
2022-11-19T20:50:34.568Z,2.27
2022-11-19T20:53:04.291Z,2.28
2022-11-19T20:55:48.548Z,2.30
2022-11-19T20:58:26.815Z,2.34
2022-11-19T21:01:02.277Z,2.35
2022-11-19T21:03:32.207Z,2.38
2022-11-19T21:06:03.533Z,2.41
2022-11-19T21:08:35.095Z,2.45
2022-11-19T21:11:12.676Z,2.47
2022-11-19T21:13:42.834Z,2.51
2022-11-19T21:16:15.819Z,2.55
2022-11-19T21:18:46.045Z,2.60
2022-11-19T21:21:17.476Z,2.64
2022-11-19T21:23:47.409Z,2.67
2022-11-19T21:26:21.693Z,2.71
2022-11-19T21:28:53.651Z,2.74
2022-11-19T21:31:37.926Z,2.77
2022-11-19T21:34:08.454Z,2.80
2022-11-19T21:36:38.415Z,2.83
2022-11-19T21:39:09.931Z,2.84
2022-11-19T21:41:42.491Z,2.88
2022-11-19T21:44:18.075Z,2.90
2022-11-19T21:46:50.920Z,2.91
2022-11-19T21:49:21.179Z,2.93
2022-11-19T21:51:51.313Z,2.95
2022-11-19T21:54:21.136Z,2.95
2022-11-19T21:56:53.553Z,2.96
2022-11-19T21:59:24.394Z,2.99
2022-11-19T22:01:55.034Z,3.00
2022-11-19T22:04:24.979Z,2.99
2022-11-19T22:06:54.698Z,3.02
2022-11-19T22:09:24.420Z,3.02
2022-11-19T22:11:57.070Z,3.02
2022-11-19T22:14:27.062Z,3.04
2022-11-19T22:16:57.102Z,3.06
2022-11-19T22:19:26.882Z,3.06
2022-11-19T22:21:56.543Z,3.08
2022-11-19T22:24:26.184Z,3.09
2022-11-19T22:26:58.774Z,3.10
2022-11-19T22:29:28.662Z,3.10
2022-11-19T22:31:58.342Z,3.07
2022-11-19T22:34:29.320Z,3.07
2022-11-19T22:36:59.055Z,3.05
2022-11-19T22:39:29.009Z,3.07
2022-11-19T22:42:02.025Z,3.08
2022-11-19T22:44:31.705Z,3.10
2022-11-19T22:47:02.626Z,3.11
2022-11-19T22:49:33.180Z,3.12
2022-11-19T22:52:02.908Z,3.13
2022-11-19T22:54:38.653Z,3.13
2022-11-19T22:57:14.089Z,3.15
2022-11-19T22:59:43.814Z,3.15
2022-11-19T23:02:13.526Z,3.14
2022-11-19T23:04:43.266Z,3.16
2022-11-19T23:07:13.005Z,3.16
2022-11-19T23:09:42.751Z,3.17
2022-11-19T23:12:27.523Z,3.18
2022-11-19T23:14:57.378Z,3.18
2022-11-19T23:17:27.175Z,3.19
2022-11-19T23:20:01.613Z,3.20
2022-11-19T23:22:34.098Z,3.20
2022-11-19T23:25:04.035Z,3.21
2022-11-19T23:27:36.586Z,3.24
2022-11-19T23:30:07.142Z,3.25
2022-11-19T23:32:36.888Z,3.27
2022-11-19T23:35:07.200Z,3.30
2022-11-19T23:37:36.854Z,3.31
2022-11-19T23:40:07.143Z,3.33
2022-11-19T23:42:39.436Z,3.34
2022-11-19T23:45:10.088Z,3.34
2022-11-19T23:47:40.212Z,3.31
2022-11-19T23:50:11.220Z,3.30
2022-11-19T23:52:40.927Z,3.27
2022-11-19T23:55:11.110Z,3.26
2022-11-19T23:57:43.432Z,3.23
